• Join FlightAware (Why Join?)
  • Login
  • US Flag 
11:51AM EDT


 

Airport Tracker/Info


-or-


 

Live Flight TrackerFlight Track Log ✈ N319EE ✈ 01-Oct-2013 ✈ KBGM - KFRG

Flight Track Log - Related Links

Times and Time Zones

All times are in EDT time to prevent confusion due to time zone crossing. See the N319EE flight status page for this flight to view local times or setup timezone preferences in your user account.

Time Position Orientation Groundspeed Altitude Reporting Facility
EDT Latitude Longitude Course Direction KTS MPH feet Rate Location/Type
02:29PM 42.2814 -75.9486 69° East 185 213 4,300  Level Boston Center
02:30PM 42.3011 -75.8778 69° East 190 219 6,100 1,740 Climbing Boston Center
02:31PM 42.3206 -75.8058 70° East 202 232 8,000 1,680 Climbing Boston Center
02:32PM 42.3383 -75.7344 71° East 202 232 9,700 1,560 Climbing Boston Center
02:33PM 42.3581 -75.6611 70° East 206 237 11,200 1,500 Climbing Boston Center
02:34PM 42.3819 -75.5658 71° East 220 253 12,800 840 Climbing Boston Center
02:35PM 42.4044 -75.4789 71° East 240 276 13,000 60 Climbing Boston Center
02:36PM 42.3983 -75.3767 95° East 281 323 13,000  Level Boston Center
02:37PM 42.3650 -75.2772 114° Southeast 291 335 13,000  Level Boston Center
02:38PM 42.3303 -75.1728 114° Southeast 300 345 13,000  Level Boston Center
02:39PM 42.2972 -75.0792 115° Southeast 287 330 13,000  Level Boston Center
02:40PM 42.2631 -74.9858 116° Southeast 280 322 13,000  Level Boston Center
02:41PM 42.2219 -74.8689 115° Southeast 286 329 13,000  Level Boston Center
02:42PM 42.1875 -74.7733 116° Southeast 286 329 13,000  Level Boston Center
02:43PM 42.1542 -74.6742 114° Southeast 289 333 13,000  Level Boston Center
02:44PM 42.1200 -74.5764 115° Southeast 289 333 13,000  Level Boston Center
02:45PM 42.0847 -74.4800 116° Southeast 290 334 13,000  Level Boston Center
02:46PM 42.0472 -74.3747 116° Southeast 294 338 13,000  Level Boston Center
02:47PM 42.0094 -74.2700 116° Southeast 293 337 13,000  Level Boston Center
02:48PM 41.9750 -74.1717 115° Southeast 292 336 13,000  Level Boston Center
02:49PM 41.9408 -74.0744 115° Southeast 290 334 13,000  Level Boston Center
02:50PM 41.9031 -73.9708 116° Southeast 287 330 13,000  Level Boston Center
02:51PM 41.8681 -73.8742 116° Southeast 287 330 13,000  Level Boston Center
02:52PM 41.8172 -73.7953 131° Southeast 286 329 13,000 -420 Level Boston Center
02:53PM 41.7561 -73.7283 141° Southeast 284 327 12,200 -1,620 Descending Boston Center
02:55PM 41.6869 -73.6508 140° Southeast 299 344 9,700 -2,040 Descending Boston Center
02:56PM 41.6264 -73.5850 141° Southeast 284 327 8,100 -1,560 Descending Boston Center
02:57PM 41.5675 -73.5211 141° Southeast 274 315 6,600 -1,380 Descending Boston Center
02:58PM 41.5083 -73.4603 142° Southeast 269 310 5,300 -840 Descending Boston Center
03:00PM 41.3833 -73.3333 143° Southeast 247 284 4,000 -420 Descending New York TRACON
03:01PM 41.3167 -73.2667 143° Southeast 243 280 4,000  Level New York TRACON
03:02PM 41.2667 -73.2167 143° Southeast 240 276 4,000  Level New York TRACON
03:03PM 41.2000 -73.1667 151° Southeast 244 281 4,000  Level New York TRACON
03:04PM 41.1500 -73.1167 143° Southeast 244 281 4,000  Level New York TRACON
03:05PM 41.1000 -73.0500 135° Southeast 244 281 4,000  Level New York TRACON
03:06PM 41.0500 -73.0000 143° Southeast 248 285 4,000  Level New York TRACON
03:07PM 41.0000 -73.0500 217° Southwest 229 264 4,000 -180 Level New York TRACON
03:08PM 40.9667 -73.1000 229° Southwest 235 270 3,700 -540 Descending New York TRACON
03:09PM 40.9000 -73.1667 217° Southwest 249 287 3,000 -360 Descending New York TRACON
03:10PM 40.8500 -73.2333 225° Southwest 232 267 3,000  Level New York TRACON
03:11PM 40.8167 -73.2833 229° Southwest 227 261 3,000  Level New York TRACON
03:12PM 40.7500 -73.3333 210° Southwest 229 264 3,000 -600 Level New York TRACON
03:13PM 40.7000 -73.3167 166° South 238 274 1,900 -660 Descending New York TRACON
03:14PM 40.6833 -73.3500 237° Southwest 215 247 1,700 -720 Descending New York TRACON
03:15PM 40.7167 -73.3833 323° Northwest 145 167 500 -1,260 Descending New York TRACON
03:17PM 40.7167 -73.4000 311° West  Level FlightAware Approximate